Concordia, KS

6:36 AM CDT on July 14, 2014 (GMT -0500)
Joe's Place (KKSCONCO1) Elev 1440 ft | 39.57 °N, 97.65 °W | Change Station

Current weather conditions updated 7 seconds ago

Scattered Clouds
Scattered Clouds
69.7 °F
Feels Like 69.7 °F
N
0.0
Wind Variable Wind from NE
Gusts 0.0 mph

Today is forecast to be Cooler than yesterday. Cloudy with morning rain.

Today
High -- | Low -- °F
--% Chance of Precip.
Yesterday
High -- | Low -- °F
Precip. -- in
6:15 AM 8:57 PM
Waning Gibbous, 94% visible
Pressure 29.99 in
Visibility 10.0 miles
Clouds Scattered Clouds 11000 ft
Dew Point 64 °F
Humidity 81%
Rainfall 0.00 in
Snow Depth Not available.
UV 0 out of 12
Pollen 4.20 out of 12
Air Quality Not available.
Flu Activity No Activity
METAR KCNK 141055Z AUTO 30005KT 10SM SCT110 19/17 A3003 RMK AO2 SLP154 T01890167

More Conditions Fewer Conditions

Pressure 29.99 in
Visibility 10.0 miles
Clouds Scattered Clouds 11000 ft
Dew Point 64 °F
Humidity 81%
Rainfall 0.00 in
Snow Depth Not available.
UV 0 out of 12
Pollen 4.20 out of 12
Air Quality Not available.
Flu Activity No Activity
METAR KCNK 141055Z AUTO 30005KT 10SM SCT110 19/17 A3003 RMK AO2 SLP154 T01890167

More Conditions Fewer Conditions

10-Day Weather Forecast

Almanac

Astronomy

Jul. 14, 2014 Rise Set
Actual Time 6:15 AM CDT 8:57 PM CDT
Civil Twilight 5:43 AM CDT 9:29 PM CDT
Nautical Twilight 5:03 AM CDT 10:08 PM CDT
Astronomical Twilight 4:18 AM CDT 10:53 PM CDT
Moon 10:29 PM CDT 8:58 AM CDT
Length of Visible Light 15h 45m
Length of Day
14h 42m
Tomorrow will be 1m 18s shorter.
Waning Gibbous, 94% of the Moon is Illuminated
Today
Waning Gibbous
Jul 18
Last Quarter
Jul 26
New
Aug 3
First Quarter
Aug 10
Full

Today's Extremes

State Highs State Lows

Community

WunderPhotos

Upload Photos

1,733,611 photos uploaded!

Nearby

Snow Depth

Station Depth Elevation
No new snow has been reported.

Earthquake Activity

City Distance Mag. Time & Date
No recent earthquake activity has been reported nearby.
Minimum magnitude displayed is 2.5.

Coastal Water Temperatures

Place Temperature
No Stations Reporting

Nearby Weather Stations

Station Location Temp. Dew Point Humidity Wind Precip. Elev Updated Type
Joe's Place, Concordia, KS 69.7 °F 64 °F 81% NE  at  0.0 mph 0.00 in / hr 1440 ft 6:35 AM CDT Rapid Fire
Chancy's Pond, Delphos, KS 67.7 °F 62 °F 83% West  at  0.0 mph 0.00 in / hr 1375 ft 6:36 AM CDT Rapid Fire
Simpson KS, Beloit, KS 63.5 °F 63 °F 98% NW  at  2.7 mph - / hr 1342 ft 6:22 AM CDT Normal

Show More Stations Show Fewer Stations